createdAt,value
2018-05-14T00:00:27.943Z,7.87
2018-05-14T00:02:28.906Z,7.93
2018-05-14T00:04:30.027Z,8.53
2018-05-14T00:06:30.986Z,8.27
2018-05-14T00:08:32.147Z,7.50
2018-05-14T00:10:33.471Z,7.83
2018-05-14T00:12:34.564Z,7.97
2018-05-14T00:14:35.536Z,7.90
2018-05-14T00:16:36.890Z,8.13
2018-05-14T00:18:38.047Z,8.30
2018-05-14T00:20:39.395Z,8.90
2018-05-14T00:22:40.415Z,8.10
2018-05-14T00:24:41.752Z,8.50
2018-05-14T00:26:43.648Z,8.67
2018-05-14T00:28:45.133Z,7.83
2018-05-14T00:30:47.144Z,17.53
2018-05-14T00:32:48.446Z,15.80
2018-05-14T00:34:50.302Z,8.50
2018-05-14T00:36:51.339Z,8.53
2018-05-14T00:38:52.403Z,9.10
2018-05-14T00:40:54.411Z,8.23
2018-05-14T00:42:56.064Z,8.57
2018-05-14T00:44:57.046Z,8.57
2018-05-14T00:46:58.409Z,9.10
2018-05-14T00:48:59.471Z,9.17
2018-05-14T00:51:02.293Z,9.80
2018-05-14T00:53:05.022Z,8.37
2018-05-14T00:55:16.417Z,9.33
2018-05-14T00:57:17.427Z,8.60
2018-05-14T00:59:18.378Z,8.70
2018-05-14T01:01:19.323Z,9.33
2018-05-14T01:03:20.274Z,8.90
2018-05-14T01:05:21.363Z,8.30
2018-05-14T01:07:22.310Z,8.07
2018-05-14T01:09:23.255Z,8.87
2018-05-14T01:11:24.219Z,9.23
2018-05-14T01:13:25.178Z,8.53
2018-05-14T01:15:26.291Z,9.30
2018-05-14T01:17:27.238Z,8.63
2018-05-14T01:19:28.851Z,8.67
2018-05-14T01:21:29.891Z,8.80
2018-05-14T01:23:30.842Z,9.10
2018-05-14T01:25:31.793Z,10.73
2018-05-14T01:27:33.282Z,8.97
2018-05-14T01:29:34.258Z,9.30
2018-05-14T01:31:35.580Z,9.03
2018-05-14T01:33:36.521Z,9.60
2018-05-14T01:35:37.463Z,9.10
2018-05-14T01:37:38.422Z,8.93
2018-05-14T01:39:39.745Z,8.33
2018-05-14T01:41:40.698Z,8.37
2018-05-14T01:43:42.027Z,8.77
2018-05-14T01:45:43.335Z,9.10
2018-05-14T01:47:44.301Z,9.43
2018-05-14T01:49:45.322Z,9.30
2018-05-14T01:51:46.358Z,9.00
2018-05-14T01:53:47.798Z,8.87
2018-05-14T01:55:48.820Z,9.07
2018-05-14T01:57:49.810Z,9.10
2018-05-14T01:59:50.783Z,9.03
2018-05-14T02:01:51.796Z,8.40
2018-05-14T02:03:52.754Z,9.33
2018-05-14T02:05:53.803Z,9.63
2018-05-14T02:07:54.763Z,9.93
2018-05-14T02:09:55.754Z,8.77
2018-05-14T02:11:56.777Z,8.80
2018-05-14T02:13:57.723Z,9.17
2018-05-14T02:15:58.982Z,9.33
2018-05-14T02:17:59.946Z,9.33
2018-05-14T02:20:01.255Z,9.93
2018-05-14T02:22:02.210Z,8.70
2018-05-14T02:24:03.170Z,9.57
2018-05-14T02:26:04.497Z,10.43
2018-05-14T02:28:05.590Z,9.33
2018-05-14T02:30:06.552Z,9.73
2018-05-14T02:32:07.536Z,9.03
2018-05-14T02:34:08.510Z,8.87
2018-05-14T02:36:09.470Z,9.03
2018-05-14T02:38:10.456Z,9.40
2018-05-14T02:40:11.673Z,9.37
2018-05-14T02:42:12.644Z,9.97
2018-05-14T02:44:13.618Z,8.97
2018-05-14T02:46:14.565Z,9.27
2018-05-14T02:48:15.891Z,9.30
2018-05-14T02:50:16.977Z,9.40
2018-05-14T02:52:17.927Z,9.33
2018-05-14T02:54:18.882Z,9.20
2018-05-14T02:56:19.830Z,8.80
2018-05-14T02:58:20.862Z,9.10
2018-05-14T03:00:21.827Z,9.30
2018-05-14T03:02:22.786Z,9.03
2018-05-14T03:04:23.770Z,9.70
2018-05-14T03:06:24.715Z,9.50
2018-05-14T03:08:26.776Z,8.83
2018-05-14T03:10:28.143Z,8.63
2018-05-14T03:12:29.660Z,9.03
2018-05-14T03:14:31.019Z,8.90
2018-05-14T03:16:32.361Z,9.20
2018-05-14T03:18:33.687Z,10.10
2018-05-14T03:20:35.254Z,9.27
2018-05-14T03:22:36.206Z,8.97
2018-05-14T03:24:37.158Z,9.50
2018-05-14T03:26:38.133Z,10.10
2018-05-14T03:28:39.306Z,9.80
2018-05-14T03:30:40.310Z,8.77
2018-05-14T03:32:41.370Z,9.13
2018-05-14T03:34:42.333Z,8.77
2018-05-14T03:36:43.285Z,9.40
2018-05-14T03:38:44.268Z,9.63
2018-05-14T03:40:45.605Z,9.43
2018-05-14T03:42:46.934Z,10.17
2018-05-14T03:44:47.899Z,9.40
2018-05-14T03:46:48.853Z,9.57
2018-05-14T03:48:49.809Z,9.10
2018-05-14T03:50:50.763Z,8.73
2018-05-14T03:52:51.698Z,10.50
2018-05-14T03:54:52.814Z,9.63
2018-05-14T03:56:53.773Z,8.87
2018-05-14T03:59:07.597Z,8.90
2018-05-14T04:01:15.345Z,9.70
2018-05-14T04:03:28.686Z,9.37
2018-05-14T04:05:42.074Z,8.17
2018-05-14T04:07:43.419Z,8.67
2018-05-14T04:09:45.554Z,8.90
2018-05-14T04:11:47.281Z,8.13
2018-05-14T04:13:48.234Z,8.70
2018-05-14T04:15:49.186Z,8.60
2018-05-14T04:17:50.410Z,8.40
2018-05-14T04:19:51.411Z,8.80
2018-05-14T04:21:52.407Z,9.10
2018-05-14T04:23:53.734Z,9.60
2018-05-14T04:25:54.698Z,9.33
2018-05-14T04:27:55.657Z,9.33
2018-05-14T04:29:56.618Z,9.13
2018-05-14T04:31:57.611Z,8.90
2018-05-14T04:33:58.792Z,9.27
2018-05-14T04:35:59.752Z,9.20
2018-05-14T04:38:00.724Z,9.00
2018-05-14T04:40:01.672Z,8.90
2018-05-14T04:42:02.618Z,9.97
2018-05-14T04:44:03.575Z,9.20
2018-05-14T04:46:04.534Z,8.57
2018-05-14T04:48:05.870Z,9.20
2018-05-14T04:50:07.223Z,9.70
2018-05-14T04:52:08.242Z,8.50
2018-05-14T04:54:09.182Z,10.77
2018-05-14T04:56:10.498Z,8.50
2018-05-14T04:58:11.446Z,10.00
2018-05-14T05:00:12.399Z,9.20
2018-05-14T05:02:13.817Z,9.53
2018-05-14T05:04:14.926Z,8.90
2018-05-14T05:06:15.866Z,9.30
2018-05-14T05:08:16.834Z,9.77
2018-05-14T05:10:17.913Z,8.57
2018-05-14T05:12:18.788Z,8.87
2018-05-14T05:14:20.128Z,8.57
2018-05-14T05:16:21.082Z,12.77
2018-05-14T05:18:22.040Z,10.30
2018-05-14T05:20:23.646Z,14.80
2018-05-14T05:22:24.640Z,11.67
2018-05-14T05:24:25.947Z,9.73
2018-05-14T05:26:27.090Z,11.20
2018-05-14T05:28:28.514Z,13.20
2018-05-14T05:30:30.551Z,11.03
2018-05-14T05:32:32.462Z,9.50
2018-05-14T05:34:34.035Z,9.37
2018-05-14T05:36:35.047Z,9.07
2018-05-14T05:38:36.378Z,8.87
2018-05-14T05:40:37.787Z,8.67
2018-05-14T05:42:38.751Z,9.50
2018-05-14T05:44:39.735Z,8.83
2018-05-14T05:46:40.686Z,8.60
2018-05-14T05:48:41.918Z,8.47
2018-05-14T05:50:43.519Z,13.07
2018-05-14T05:52:44.852Z,16.20
2018-05-14T05:54:46.069Z,9.03
2018-05-14T05:56:47.006Z,9.60
2018-05-14T05:58:47.941Z,10.00
2018-05-14T06:00:48.982Z,8.83
2018-05-14T06:02:49.949Z,8.60
2018-05-14T06:04:51.271Z,9.70
2018-05-14T06:06:52.242Z,8.30
2018-05-14T06:08:53.191Z,8.37
2018-05-14T06:10:54.178Z,9.23
2018-05-14T06:12:55.506Z,8.70
2018-05-14T06:14:56.484Z,8.80
2018-05-14T06:16:57.437Z,8.97
2018-05-14T06:18:58.386Z,7.70
2018-05-14T06:20:59.347Z,9.30
2018-05-14T06:23:00.338Z,12.10
2018-05-14T06:25:01.315Z,13.40
2018-05-14T06:27:02.278Z,10.17
2018-05-14T06:29:03.605Z,16.90
2018-05-14T06:31:04.823Z,11.20
2018-05-14T06:33:05.768Z,9.67
2018-05-14T06:35:06.784Z,10.17
2018-05-14T06:37:08.073Z,8.60
2018-05-14T06:39:09.419Z,8.43
2018-05-14T06:41:10.764Z,8.03
2018-05-14T06:43:12.107Z,9.57
2018-05-14T06:45:13.425Z,9.37
2018-05-14T06:47:14.357Z,9.30
2018-05-14T06:49:15.306Z,8.43
2018-05-14T06:51:16.652Z,8.03
2018-05-14T06:53:17.966Z,8.13
2018-05-14T06:55:18.938Z,8.50
2018-05-14T06:57:20.257Z,8.57
2018-05-14T06:59:21.204Z,9.83
2018-05-14T07:01:22.707Z,9.20
2018-05-14T07:03:23.646Z,8.27
2018-05-14T07:05:24.599Z,8.17
2018-05-14T07:07:25.579Z,9.10
2018-05-14T07:09:26.537Z,8.30
2018-05-14T07:11:28.141Z,7.90
2018-05-14T07:13:29.466Z,8.10
2018-05-14T07:15:30.402Z,8.50
2018-05-14T07:17:31.342Z,8.23
2018-05-14T07:19:32.672Z,7.70
2018-05-14T07:21:34.303Z,8.63
2018-05-14T07:23:35.286Z,8.87
2018-05-14T07:25:36.595Z,8.13
2018-05-14T07:27:37.820Z,7.80
2018-05-14T07:29:39.300Z,8.93
2018-05-14T07:31:40.663Z,8.97
2018-05-14T07:33:41.673Z,8.60
2018-05-14T07:35:42.620Z,8.23
2018-05-14T07:37:44.342Z,8.43
2018-05-14T07:39:45.286Z,8.13
2018-05-14T07:41:46.411Z,7.73
2018-05-14T07:43:47.354Z,7.17
2018-05-14T07:45:48.320Z,7.50
2018-05-14T07:47:49.641Z,7.53
2018-05-14T07:49:50.594Z,8.30
2018-05-14T07:51:52.194Z,7.27
2018-05-14T07:53:53.139Z,7.23
2018-05-14T07:55:54.077Z,7.73
2018-05-14T07:57:55.054Z,8.20
2018-05-14T07:59:56.014Z,7.60
2018-05-14T08:01:56.963Z,7.93
2018-05-14T08:03:57.898Z,6.80
2018-05-14T08:05:58.846Z,7.27
2018-05-14T08:07:59.789Z,7.40
2018-05-14T08:10:00.754Z,7.60
2018-05-14T08:12:02.070Z,6.83
2018-05-14T08:14:03.046Z,7.50
2018-05-14T08:16:04.019Z,7.17
2018-05-14T08:18:04.985Z,7.47
2018-05-14T08:20:06.294Z,7.50
2018-05-14T08:22:07.415Z,7.77
2018-05-14T08:24:08.364Z,6.67
2018-05-14T08:26:09.321Z,6.77
2018-05-14T08:28:10.292Z,7.63
2018-05-14T08:30:11.242Z,7.13
2018-05-14T08:32:12.179Z,6.93
2018-05-14T08:34:13.178Z,6.90
2018-05-14T08:36:14.491Z,7.03
2018-05-14T08:38:15.427Z,6.90
2018-05-14T08:40:16.371Z,7.10
2018-05-14T08:42:17.360Z,6.67
2018-05-14T08:44:18.281Z,6.27
2018-05-14T08:46:19.230Z,6.80
2018-05-14T08:48:20.178Z,6.93
2018-05-14T08:50:21.118Z,6.60
2018-05-14T08:52:22.179Z,7.33
2018-05-14T08:54:23.495Z,7.00
2018-05-14T08:56:24.350Z,6.93
2018-05-14T08:58:25.320Z,7.10
2018-05-14T09:00:26.254Z,6.20
2018-05-14T09:02:27.198Z,6.53
2018-05-14T09:04:28.169Z,6.30
2018-05-14T09:06:29.143Z,6.33
2018-05-14T09:08:30.465Z,6.67
2018-05-14T09:10:31.423Z,5.90
2018-05-14T09:12:32.737Z,7.37
2018-05-14T09:14:33.708Z,5.90
2018-05-14T09:16:34.658Z,6.43
2018-05-14T09:18:35.610Z,6.07
2018-05-14T09:20:36.562Z,6.03
2018-05-14T09:22:37.506Z,5.87
2018-05-14T09:24:38.622Z,5.80
2018-05-14T09:26:39.558Z,5.80
2018-05-14T09:28:40.492Z,5.40
2018-05-14T09:30:41.462Z,6.43
2018-05-14T09:32:42.409Z,6.10
2018-05-14T09:34:43.985Z,6.10
2018-05-14T09:36:45.028Z,6.00
2018-05-14T09:38:45.987Z,5.50
2018-05-14T09:40:46.942Z,5.60
2018-05-14T09:42:48.258Z,6.03
2018-05-14T09:44:49.272Z,5.80
2018-05-14T09:46:50.221Z,5.90
2018-05-14T09:48:51.190Z,6.37
2018-05-14T09:50:52.405Z,5.53
2018-05-14T09:52:53.342Z,5.87
2018-05-14T09:54:54.316Z,5.57
2018-05-14T09:56:55.627Z,5.43
2018-05-14T09:58:56.578Z,6.40
2018-05-14T10:00:57.919Z,5.77
2018-05-14T10:02:58.874Z,5.30
2018-05-14T10:05:00.505Z,5.77
2018-05-14T10:07:01.455Z,5.90
2018-05-14T10:09:02.774Z,5.70
2018-05-14T10:11:03.718Z,6.10
2018-05-14T10:13:05.329Z,6.30
2018-05-14T10:15:06.246Z,5.87
2018-05-14T10:17:07.525Z,5.10
2018-05-14T10:19:09.158Z,5.30
2018-05-14T10:21:10.129Z,5.63
2018-05-14T10:23:11.450Z,5.60
2018-05-14T10:25:12.422Z,5.63
2018-05-14T10:27:13.733Z,5.80
2018-05-14T10:29:14.674Z,5.60
2018-05-14T10:31:15.637Z,5.43
2018-05-14T10:33:16.687Z,5.60
2018-05-14T10:35:18.454Z,6.03
2018-05-14T10:37:19.431Z,6.13
2018-05-14T10:39:20.386Z,5.87
2018-05-14T10:41:21.711Z,5.80
2018-05-14T10:43:22.662Z,6.13
2018-05-14T10:45:24.090Z,6.10
2018-05-14T10:47:25.130Z,5.60
2018-05-14T10:49:26.078Z,6.20
2018-05-14T10:51:27.398Z,7.90
2018-05-14T10:53:28.365Z,5.67
2018-05-14T10:55:29.346Z,5.60
2018-05-14T10:57:30.301Z,6.00
2018-05-14T10:59:31.922Z,6.60
2018-05-14T11:01:32.879Z,5.40
2018-05-14T11:03:33.846Z,5.90
2018-05-14T11:05:35.330Z,5.80
2018-05-14T11:07:36.274Z,5.50
2018-05-14T11:09:37.206Z,5.70
2018-05-14T11:11:38.158Z,5.67
2018-05-14T11:13:39.119Z,5.77
2018-05-14T11:15:40.449Z,5.53
2018-05-14T11:17:41.414Z,6.17
2018-05-14T11:19:42.744Z,6.20
2018-05-14T11:21:44.054Z,6.27
2018-05-14T11:23:44.998Z,5.73
2018-05-14T11:25:46.020Z,6.10
2018-05-14T11:27:46.994Z,6.23
2018-05-14T11:29:48.641Z,5.87
2018-05-14T11:31:49.969Z,5.90
2018-05-14T11:33:50.911Z,8.73
2018-05-14T11:35:52.217Z,7.47
2018-05-14T11:37:53.463Z,5.70
2018-05-14T11:39:54.422Z,6.50
2018-05-14T11:41:55.403Z,5.93
2018-05-14T11:43:56.334Z,14.37
2018-05-14T11:45:57.298Z,6.87
2018-05-14T11:47:58.245Z,6.80
2018-05-14T11:49:59.186Z,6.60
2018-05-14T11:52:00.502Z,5.57
2018-05-14T11:54:02.612Z,6.70
2018-05-14T11:56:03.663Z,6.17
2018-05-14T11:58:05.359Z,6.63
2018-05-14T12:00:06.554Z,7.20
2018-05-14T12:02:07.531Z,6.10
2018-05-14T12:04:08.519Z,6.30
2018-05-14T12:06:09.457Z,6.50
2018-05-14T12:08:10.422Z,5.63
2018-05-14T12:10:11.375Z,7.00
2018-05-14T12:12:12.397Z,6.53
2018-05-14T12:14:13.658Z,5.87
2018-05-14T12:16:14.624Z,6.80
2018-05-14T12:18:16.203Z,7.67
2018-05-14T12:20:17.154Z,6.90
2018-05-14T12:22:18.102Z,6.97
2018-05-14T12:24:19.073Z,6.30
2018-05-14T12:26:20.390Z,6.53
2018-05-14T12:28:21.851Z,6.17
2018-05-14T12:30:23.194Z,6.20
2018-05-14T12:32:24.514Z,6.20
2018-05-14T12:34:25.496Z,21.20
2018-05-14T12:36:26.413Z,8.53
2018-05-14T12:38:27.751Z,6.97
2018-05-14T12:40:29.071Z,6.57
2018-05-14T12:42:30.022Z,6.70
2018-05-14T12:44:31.345Z,6.10
2018-05-14T12:46:32.354Z,6.30
2018-05-14T12:48:33.310Z,6.13
2018-05-14T12:50:34.646Z,7.30
2018-05-14T12:52:35.595Z,6.90
2018-05-14T12:54:36.558Z,6.50
2018-05-14T12:56:37.983Z,6.90
2018-05-14T12:58:38.954Z,6.70
2018-05-14T13:00:39.894Z,6.50
2018-05-14T13:02:40.942Z,6.47
2018-05-14T13:04:41.895Z,6.50
2018-05-14T13:06:42.849Z,6.80
2018-05-14T13:08:43.826Z,6.10
2018-05-14T13:10:44.773Z,6.93
2018-05-14T13:12:46.089Z,6.30
2018-05-14T13:14:47.423Z,8.40
2018-05-14T13:16:48.750Z,6.67
2018-05-14T13:18:49.706Z,6.73
2018-05-14T13:20:51.285Z,6.47
2018-05-14T13:22:52.241Z,6.53
2018-05-14T13:24:53.181Z,6.67
2018-05-14T13:26:54.275Z,6.60
2018-05-14T13:28:55.234Z,6.80
2018-05-14T13:30:56.173Z,7.03
2018-05-14T13:32:57.296Z,6.30
2018-05-14T13:34:58.277Z,6.60
2018-05-14T13:36:59.222Z,6.60
2018-05-14T13:39:00.183Z,6.10
2018-05-14T13:41:01.153Z,5.83
2018-05-14T13:43:02.118Z,6.33
2018-05-14T13:45:03.068Z,9.10
2018-05-14T13:47:04.049Z,6.10
2018-05-14T13:49:04.995Z,6.50
2018-05-14T13:51:06.106Z,6.27
2018-05-14T13:53:06.939Z,6.13
2018-05-14T13:55:07.890Z,6.80
2018-05-14T13:57:08.833Z,6.73
2018-05-14T13:59:09.938Z,9.23
2018-05-14T14:01:10.886Z,7.07
2018-05-14T14:03:11.835Z,6.90
2018-05-14T14:05:12.803Z,6.50
2018-05-14T14:07:13.741Z,6.77
2018-05-14T14:09:14.731Z,6.90
2018-05-14T14:11:15.690Z,6.50
2018-05-14T14:13:16.639Z,12.23
2018-05-14T14:15:17.967Z,7.20
2018-05-14T14:17:18.921Z,6.27
2018-05-14T14:19:20.238Z,7.40
2018-05-14T14:21:21.215Z,6.77
2018-05-14T14:23:22.641Z,6.67
2018-05-14T14:25:23.478Z,6.00
2018-05-14T14:27:25.105Z,6.60
2018-05-14T14:29:26.061Z,6.73
2018-05-14T14:31:27.373Z,6.40
2018-05-14T14:33:28.370Z,7.13
2018-05-14T14:35:29.346Z,6.97
2018-05-14T14:37:30.325Z,6.37
2018-05-14T14:39:31.286Z,7.63
2018-05-14T14:41:32.229Z,7.20
2018-05-14T14:43:33.178Z,5.73
2018-05-14T14:45:34.418Z,6.87
2018-05-14T14:47:35.375Z,6.47
2018-05-14T14:49:36.323Z,5.80
2018-05-14T14:51:38.137Z,6.20
2018-05-14T14:53:39.167Z,7.10
2018-05-14T14:55:40.082Z,6.57
2018-05-14T14:57:41.389Z,6.93
2018-05-14T14:59:42.718Z,7.20
2018-05-14T15:01:43.660Z,7.30
2018-05-14T15:03:45.095Z,8.73
2018-05-14T15:05:46.858Z,7.00
2018-05-14T15:07:48.207Z,9.70
2018-05-14T15:09:49.539Z,12.27
2018-05-14T15:11:50.851Z,7.13
2018-05-14T15:13:51.813Z,8.30
2018-05-14T15:15:52.846Z,7.07
2018-05-14T15:17:53.798Z,7.33
2018-05-14T15:19:55.202Z,7.23
2018-05-14T15:21:56.146Z,7.70
2018-05-14T15:23:57.085Z,7.40
2018-05-14T15:25:58.061Z,8.00
2018-05-14T15:27:59.008Z,7.90
2018-05-14T15:30:00.002Z,6.83
2018-05-14T15:32:00.958Z,7.10
2018-05-14T15:34:02.331Z,7.67
2018-05-14T15:36:03.275Z,7.47
2018-05-14T15:38:04.828Z,6.93
2018-05-14T15:40:05.785Z,6.80
2018-05-14T15:42:07.235Z,7.00
2018-05-14T15:44:08.255Z,8.30
2018-05-14T15:46:09.223Z,7.30
2018-05-14T15:48:10.546Z,7.07
2018-05-14T15:50:11.506Z,6.23
2018-05-14T15:52:12.825Z,6.23
2018-05-14T15:54:13.832Z,6.70
2018-05-14T15:56:14.953Z,6.67
2018-05-14T15:58:15.846Z,6.13
2018-05-14T16:00:17.154Z,8.00
2018-05-14T16:02:18.102Z,5.90
2018-05-14T16:04:19.042Z,6.37
2018-05-14T16:06:20.019Z,6.33
2018-05-14T16:08:20.983Z,6.17
2018-05-14T16:10:21.970Z,6.07
2018-05-14T16:12:23.318Z,6.80
2018-05-14T16:14:24.638Z,6.53
2018-05-14T16:16:25.580Z,7.03
2018-05-14T16:18:27.197Z,7.27
2018-05-14T16:20:28.162Z,6.70
2018-05-14T16:22:29.479Z,5.70
2018-05-14T16:24:30.612Z,6.40
2018-05-14T16:26:31.619Z,6.10
2018-05-14T16:28:32.521Z,6.43
2018-05-14T16:30:33.854Z,6.10
2018-05-14T16:32:35.186Z,5.90
2018-05-14T16:34:36.143Z,6.10
2018-05-14T16:38:45.363Z,6.50
2018-05-14T16:40:46.308Z,6.73
2018-05-14T16:42:48.223Z,6.80
2018-05-14T16:44:49.298Z,6.37
2018-05-14T16:46:50.607Z,7.50
2018-05-14T16:48:51.566Z,6.40
2018-05-14T16:50:52.507Z,6.47
2018-05-14T16:52:53.826Z,6.40
2018-05-14T16:54:54.954Z,6.77
2018-05-14T16:56:55.913Z,13.00
2018-05-14T16:58:56.976Z,10.07
2018-05-14T17:00:58.293Z,7.10
2018-05-14T17:02:59.289Z,7.03
2018-05-14T17:05:00.237Z,7.37
2018-05-14T17:07:01.890Z,6.50
2018-05-14T17:09:02.890Z,6.50
2018-05-14T17:11:03.985Z,6.47
2018-05-14T17:13:04.958Z,6.80
2018-05-14T17:15:05.958Z,7.40
2018-05-14T17:17:07.186Z,6.67
2018-05-14T17:19:08.178Z,7.27
2018-05-14T17:21:09.170Z,8.60
2018-05-14T17:23:10.523Z,6.93
2018-05-14T17:25:11.873Z,8.20
2018-05-14T17:27:13.223Z,6.57
2018-05-14T17:29:14.237Z,6.20
2018-05-14T17:31:15.216Z,6.33
2018-05-14T17:33:16.185Z,6.97
2018-05-14T17:35:17.184Z,6.37
2018-05-14T17:37:18.159Z,6.30
2018-05-14T17:39:19.234Z,6.40
2018-05-14T17:41:20.267Z,7.27
2018-05-14T17:43:21.614Z,7.37
2018-05-14T17:45:22.995Z,11.03
2018-05-14T17:47:23.983Z,7.00
2018-05-14T17:49:25.330Z,7.40
2018-05-14T17:51:26.693Z,6.47
2018-05-14T17:53:27.698Z,7.20
2018-05-14T17:55:29.038Z,6.60
2018-05-14T17:57:30.044Z,7.30
2018-05-14T17:59:31.291Z,7.50
2018-05-14T18:01:32.247Z,6.53
2018-05-14T18:03:33.196Z,5.97
2018-05-14T18:05:34.543Z,7.00
2018-05-14T18:07:35.863Z,8.07
2018-05-14T18:09:36.806Z,7.23
2018-05-14T18:11:38.010Z,6.20
2018-05-14T18:13:38.961Z,6.77
2018-05-14T18:15:39.893Z,6.57
2018-05-14T18:17:40.887Z,8.47
2018-05-14T18:19:48.090Z,8.90
2018-05-14T18:21:49.038Z,6.77
2018-05-14T18:23:49.991Z,7.20
2018-05-14T18:25:53.889Z,7.20
2018-05-14T18:28:00.918Z,7.10
2018-05-14T18:30:07.907Z,6.03
2018-05-14T18:32:08.861Z,6.93
2018-05-14T18:34:09.811Z,6.30
2018-05-14T18:36:10.766Z,6.47
2018-05-14T18:38:12.106Z,6.37
2018-05-14T18:40:13.426Z,18.50
2018-05-14T18:42:14.384Z,6.23
2018-05-14T18:44:15.706Z,6.03
2018-05-14T18:46:16.647Z,5.73
2018-05-14T18:48:17.975Z,6.07
2018-05-14T18:50:18.929Z,6.40
2018-05-14T18:52:20.251Z,6.17
2018-05-14T18:54:21.202Z,6.60
2018-05-14T18:56:22.541Z,6.40
2018-05-14T18:58:23.488Z,6.40
2018-05-14T19:00:24.822Z,6.40
2018-05-14T19:02:25.757Z,7.90
2018-05-14T19:04:27.091Z,7.20
2018-05-14T19:06:28.041Z,6.90
2018-05-14T19:08:29.357Z,6.50
2018-05-14T19:10:36.519Z,6.67
2018-05-14T19:12:37.494Z,6.70
2018-05-14T19:14:38.828Z,6.90
2018-05-14T19:16:45.873Z,6.50
2018-05-14T19:18:46.813Z,6.67
2018-05-14T19:20:47.770Z,5.73
2018-05-14T19:22:54.682Z,6.60
2018-05-14T19:24:55.652Z,6.77
2018-05-14T19:26:56.614Z,6.80
2018-05-14T19:42:16.483Z,7.00
2018-05-14T19:44:17.795Z,13.67
2018-05-14T19:46:18.740Z,8.83
2018-05-14T19:48:19.717Z,7.90
2018-05-14T19:50:20.752Z,7.30
2018-05-14T19:52:21.687Z,8.00
2018-05-14T19:54:22.646Z,7.40
2018-05-14T19:56:23.591Z,8.67
2018-05-14T19:58:24.538Z,7.40
2018-05-14T20:00:25.869Z,7.40
2018-05-14T20:02:26.826Z,7.87
2018-05-14T20:04:27.765Z,8.20
2018-05-14T20:06:28.722Z,8.03
2018-05-14T20:08:37.177Z,7.33
2018-05-14T20:10:38.118Z,7.80
2018-05-14T20:12:39.154Z,11.87
2018-05-14T20:14:40.650Z,8.40
2018-05-14T20:16:41.641Z,7.73
2018-05-14T20:18:42.708Z,7.93
2018-05-14T20:20:44.029Z,7.37
2018-05-14T20:22:44.984Z,8.77
2018-05-14T20:24:46.435Z,8.27
2018-05-14T20:26:47.775Z,8.33
2018-05-14T20:28:49.094Z,8.50
2018-05-14T20:30:50.363Z,8.10
2018-05-14T20:32:51.678Z,7.77
2018-05-14T20:34:52.619Z,8.27
2018-05-14T20:36:53.574Z,9.80
2018-05-14T20:38:54.896Z,8.73
2018-05-14T20:40:55.905Z,8.20
2018-05-14T20:42:56.897Z,9.40
2018-05-14T20:44:58.187Z,8.20
2018-05-14T20:46:59.410Z,8.07
2018-05-14T20:49:00.534Z,8.93
2018-05-14T20:51:02.046Z,8.53
2018-05-14T20:53:03.363Z,8.90
2018-05-14T20:55:04.494Z,9.67
2018-05-14T20:57:05.455Z,10.03
2018-05-14T20:59:06.418Z,8.90
2018-05-14T21:01:07.390Z,8.90
2018-05-14T21:03:08.326Z,8.60
2018-05-14T21:05:09.346Z,8.60
2018-05-14T21:07:10.266Z,8.90
2018-05-14T21:09:11.206Z,9.20
2018-05-14T21:11:12.154Z,8.60
2018-05-14T21:13:13.299Z,9.63
2018-05-14T21:15:14.226Z,9.30
2018-05-14T21:17:15.189Z,8.23
2018-05-14T21:19:16.486Z,9.30
2018-05-14T21:21:18.501Z,9.13
2018-05-14T21:23:19.451Z,10.37
2018-05-14T21:25:20.767Z,8.90
2018-05-14T21:27:23.169Z,9.83
2018-05-14T21:29:24.484Z,9.50
2018-05-14T21:31:25.426Z,10.07
2018-05-14T21:33:26.391Z,12.53
2018-05-14T21:35:27.349Z,9.67
2018-05-14T21:37:28.298Z,9.70
2018-05-14T21:39:29.246Z,9.87
2018-05-14T21:41:30.178Z,9.70
2018-05-14T21:43:32.033Z,9.47
2018-05-14T21:45:32.991Z,9.30
2018-05-14T21:47:34.314Z,9.07
2018-05-14T21:49:35.275Z,9.57
2018-05-14T21:51:36.597Z,9.60
2018-05-14T21:53:37.531Z,17.77
2018-05-14T21:55:38.466Z,13.27
2018-05-14T21:57:39.420Z,10.13
2018-05-14T21:59:40.746Z,9.03
2018-05-14T22:01:41.677Z,9.90
2018-05-14T22:03:42.615Z,9.50
2018-05-14T22:05:49.381Z,8.80
2018-05-14T22:07:52.077Z,9.00
2018-05-14T22:09:54.809Z,9.00
2018-05-14T22:11:55.753Z,8.80
2018-05-14T22:13:56.697Z,9.93
2018-05-14T22:15:57.641Z,8.90
2018-05-14T22:17:59.509Z,9.30
2018-05-14T22:20:00.860Z,8.97
2018-05-14T22:22:01.803Z,9.90
2018-05-14T22:24:02.742Z,10.00
2018-05-14T22:26:03.678Z,11.07
2018-05-14T22:28:04.611Z,9.43
2018-05-14T22:30:05.573Z,9.37
2018-05-14T22:32:07.064Z,9.67
2018-05-14T22:34:08.382Z,9.37
2018-05-14T22:36:09.454Z,8.83
2018-05-14T22:38:10.762Z,9.30
2018-05-14T22:40:11.701Z,9.97
2018-05-14T22:42:12.650Z,10.80
2018-05-14T22:44:14.058Z,9.40
2018-05-14T22:46:15.015Z,9.40
2018-05-14T22:48:15.957Z,9.90
2018-05-14T22:50:16.905Z,9.83
2018-05-14T22:52:18.254Z,10.37
2018-05-14T22:54:31.627Z,9.20
2018-05-14T22:56:32.587Z,10.30
2018-05-14T22:58:33.522Z,9.67
2018-05-14T23:00:34.462Z,10.50
2018-05-14T23:02:35.801Z,10.00
2018-05-14T23:04:36.733Z,10.70
2018-05-14T23:06:37.683Z,10.90
2018-05-14T23:08:38.990Z,9.57
2018-05-14T23:10:39.942Z,9.43
2018-05-14T23:12:40.883Z,10.20
2018-05-14T23:14:42.199Z,10.90
2018-05-14T23:16:43.126Z,11.03
2018-05-14T23:18:44.065Z,9.80
2018-05-14T23:20:45.021Z,10.60
2018-05-14T23:22:45.953Z,11.50
2018-05-14T23:24:46.898Z,11.37
2018-05-14T23:26:48.227Z,11.17
2018-05-14T23:28:49.182Z,11.10
2018-05-14T23:30:50.502Z,10.37
2018-05-14T23:32:51.437Z,11.30
2018-05-14T23:34:52.598Z,10.93
2018-05-14T23:36:53.918Z,11.47
2018-05-14T23:38:54.857Z,10.43
2018-05-14T23:40:55.812Z,12.00
2018-05-14T23:42:57.121Z,11.40
2018-05-14T23:44:58.084Z,11.00
2018-05-14T23:46:59.410Z,11.27
2018-05-14T23:49:00.351Z,10.67
2018-05-14T23:51:01.679Z,11.37
2018-05-14T23:53:02.675Z,10.93
2018-05-14T23:55:03.615Z,11.60
2018-05-14T23:57:04.550Z,11.53
2018-05-14T23:59:05.502Z,11.37
